Time;durP1;ratioP1;P1;durP2;ratioP2;P2;SDS_P1;SDS_P2;PMS_P1;PMS_P2;Temp;Humidity;BMP_temperature;BMP_pressure;BME280_temperature;BME280_humidity;BME280_pressure;Samples;Min_cycle;Max_cycle;Signal;HPM_P1;HPM_P2
2024/01/21 00:02:21;;;;;;;17.05;7.80;;;;;;;;;;4996968;28;99634;-66
2024/01/21 00:04:48;;;;;;;13.82;7.80;;;;;;;;;;4999441;28;98584;-66
2024/01/21 00:07:15;;;;;;;14.05;7.47;;;;;;;;;;5003545;28;98545;-69
2024/01/21 00:09:41;;;;;;;15.52;7.80;;;;;;;;;;5002257;28;98497;-66
2024/01/21 00:12:08;;;;;;;18.55;8.25;;;;;;;;;;4999011;28;100299;-66
2024/01/21 00:14:37;;;;;;;15.07;8.10;;;;;;;;;;4997022;28;99953;-66
2024/01/21 00:17:05;;;;;;;21.67;7.57;;;;;;;;;;4996750;28;98880;-66
2024/01/21 00:19:31;;;;;;;16.35;7.30;;;;;;;;;;4998378;28;102280;-66
2024/01/21 00:21:57;;;;;;;12.30;6.97;;;;;;;;;;5000187;28;99539;-66
2024/01/21 00:24:24;;;;;;;12.52;7.22;;;;;;;;;;4998223;28;98540;-66
2024/01/21 00:26:50;;;;;;;9.63;6.60;;;;;;;;;;4997690;28;99223;-66
2024/01/21 00:29:16;;;;;;;12.30;7.03;;;;;;;;;;5001592;28;98807;-66
2024/01/21 00:31:43;;;;;;;14.00;7.18;;;;;;;;;;4997806;28;98629;-66
2024/01/21 00:34:09;;;;;;;11.75;6.85;;;;;;;;;;4994282;28;99944;-66
2024/01/21 00:36:36;;;;;;;16.17;8.05;;;;;;;;;;4995353;28;99671;-66
2024/01/21 00:39:02;;;;;;;13.40;7.28;;;;;;;;;;5001350;28;103098;-66
2024/01/21 00:41:29;;;;;;;16.52;7.57;;;;;;;;;;4999495;28;100555;-66
2024/01/21 00:43:55;;;;;;;12.00;7.25;;;;;;;;;;4999245;28;98708;-66
2024/01/21 00:46:21;;;;;;;10.98;6.88;;;;;;;;;;4993982;28;99202;-66
2024/01/21 00:48:48;;;;;;;11.73;7.20;;;;;;;;;;5000365;28;99477;-66
2024/01/21 00:51:14;;;;;;;16.70;6.65;;;;;;;;;;5000079;28;98670;-66
2024/01/21 00:53:41;;;;;;;13.85;7.07;;;;;;;;;;4999494;28;99795;-66
2024/01/21 00:56:07;;;;;;;11.30;6.43;;;;;;;;;;5001620;28;98501;-66
2024/01/21 00:58:33;;;;;;;9.88;5.95;;;;;;;;;;5000112;28;100279;-66
2024/01/21 01:01:00;;;;;;;14.48;6.22;;;;;;;;;;4995057;28;100156;-66
2024/01/21 01:03:26;;;;;;;9.85;5.63;;;;;;;;;;4997394;28;98856;-66
2024/01/21 01:05:53;;;;;;;9.05;5.80;;;;;;;;;;4999571;28;100196;-66
2024/01/21 01:08:20;;;;;;;11.23;5.68;;;;;;;;;;4996323;28;99413;-65
2024/01/21 01:10:46;;;;;;;8.80;5.13;;;;;;;;;;4999536;28;98705;-65
2024/01/21 01:13:13;;;;;;;10.52;6.07;;;;;;;;;;5001819;28;98633;-65
2024/01/21 01:15:39;;;;;;;10.95;5.97;;;;;;;;;;4997455;28;98645;-65
2024/01/21 01:18:06;;;;;;;10.32;5.65;;;;;;;;;;4997618;28;99300;-65
2024/01/21 01:20:32;;;;;;;8.25;5.38;;;;;;;;;;4995280;28;99749;-65
2024/01/21 01:22:58;;;;;;;11.80;5.15;;;;;;;;;;4997555;28;98685;-64
2024/01/21 01:25:27;;;;;;;13.02;5.43;;;;;;;;;;5000446;28;99519;-65
2024/01/21 01:27:53;;;;;;;9.65;5.65;;;;;;;;;;4992625;28;99528;-65
2024/01/21 01:30:19;;;;;;;7.72;4.93;;;;;;;;;;4996590;28;99869;-64
2024/01/21 01:32:46;;;;;;;10.75;4.97;;;;;;;;;;4998204;28;100427;-64
2024/01/21 01:35:12;;;;;;;8.52;5.32;;;;;;;;;;4999456;28;101061;-65
2024/01/21 01:37:39;;;;;;;8.13;4.60;;;;;;;;;;4997710;28;100614;-65
2024/01/21 01:40:08;;;;;;;6.22;4.63;;;;;;;;;;4997156;28;99502;-65
2024/01/21 01:42:35;;;;;;;9.10;5.03;;;;;;;;;;5000929;28;97896;-65
2024/01/21 01:45:02;;;;;;;8.85;5.28;;;;;;;;;;4995874;28;98691;-65
2024/01/21 01:47:28;;;;;;;8.45;4.78;;;;;;;;;;4995433;28;99494;-65
2024/01/21 01:49:56;;;;;;;6.65;4.00;;;;;;;;;;4993043;28;99328;-64
2024/01/21 01:52:22;;;;;;;6.30;3.53;;;;;;;;;;4996594;28;99899;-65
2024/01/21 01:54:48;;;;;;;6.32;4.68;;;;;;;;;;4995444;28;99932;-65
2024/01/21 01:57:15;;;;;;;8.93;4.22;;;;;;;;;;4996418;28;99101;-65
2024/01/21 01:59:42;;;;;;;8.73;4.07;;;;;;;;;;4998959;28;99540;-64
2024/01/21 02:02:09;;;;;;;9.85;4.20;;;;;;;;;;4997530;28;98739;-64
2024/01/21 02:04:36;;;;;;;8.75;4.40;;;;;;;;;;4999703;28;99152;-64
2024/01/21 02:07:02;;;;;;;7.43;4.15;;;;;;;;;;4991678;28;98801;-65
2024/01/21 02:09:29;;;;;;;9.05;4.45;;;;;;;;;;4998789;28;98675;-65
2024/01/21 02:11:55;;;;;;;6.50;4.18;;;;;;;;;;4994127;28;99536;-65
2024/01/21 02:14:22;;;;;;;9.88;4.88;;;;;;;;;;4995465;28;99509;-65
2024/01/21 02:16:48;;;;;;;6.35;3.72;;;;;;;;;;4999456;28;98610;-65
2024/01/21 02:19:26;;;;;;;7.82;4.15;;;;;;;;;;4992683;28;98836;-66
2024/01/21 02:21:53;;;;;;;8.02;4.28;;;;;;;;;;4998522;28;98741;-66
2024/01/21 02:24:19;;;;;;;8.73;4.25;;;;;;;;;;4998235;28;100300;-66
2024/01/21 02:26:47;;;;;;;14.50;4.22;;;;;;;;;;4996374;28;99987;-66
2024/01/21 02:29:14;;;;;;;9.27;3.88;;;;;;;;;;5000537;28;98514;-66
2024/01/21 02:31:44;;;;;;;6.40;3.58;;;;;;;;;;4996827;28;100193;-66
2024/01/21 02:34:10;;;;;;;5.93;4.18;;;;;;;;;;4994629;28;99483;-66
2024/01/21 02:36:36;;;;;;;8.13;4.03;;;;;;;;;;4999100;28;98682;-66
2024/01/21 02:39:03;;;;;;;9.43;4.45;;;;;;;;;;4998221;28;99477;-66
2024/01/21 02:41:30;;;;;;;6.72;3.88;;;;;;;;;;4996163;28;98552;-66
2024/01/21 02:43:56;;;;;;;8.48;4.57;;;;;;;;;;4992063;28;99298;-66
2024/01/21 02:46:23;;;;;;;7.88;3.95;;;;;;;;;;4999797;28;99481;-66
2024/01/21 02:48:49;;;;;;;7.85;4.30;;;;;;;;;;4999626;28;98767;-66
2024/01/21 02:51:15;;;;;;;6.82;4.00;;;;;;;;;;4995395;28;100893;-66
2024/01/21 02:53:42;;;;;;;11.25;4.50;;;;;;;;;;4999414;28;99726;-66
2024/01/21 02:56:08;;;;;;;6.57;4.18;;;;;;;;;;5000979;28;97831;-66
2024/01/21 02:58:35;;;;;;;9.95;5.00;;;;;;;;;;4998321;28;98572;-66
2024/01/21 03:01:02;;;;;;;6.82;4.55;;;;;;;;;;4999212;28;99492;-66
2024/01/21 03:03:28;;;;;;;6.10;3.92;;;;;;;;;;4999326;28;99395;-66
2024/01/21 03:05:55;;;;;;;11.52;4.65;;;;;;;;;;4998482;28;99444;-66
2024/01/21 03:08:21;;;;;;;7.43;4.10;;;;;;;;;;4996715;28;98760;-66
2024/01/21 03:10:47;;;;;;;8.20;4.15;;;;;;;;;;4998632;28;99167;-66
2024/01/21 03:13:14;;;;;;;7.07;4.40;;;;;;;;;;4998065;28;99514;-66
2024/01/21 03:15:40;;;;;;;8.38;4.35;;;;;;;;;;4996293;28;98689;-66
2024/01/21 03:18:06;;;;;;;5.25;3.63;;;;;;;;;;4999110;28;99806;-66
2024/01/21 03:20:33;;;;;;;9.55;4.53;;;;;;;;;;5001019;28;99948;-65
2024/01/21 03:22:59;;;;;;;5.65;3.63;;;;;;;;;;5005595;28;98529;-65
2024/01/21 03:25:25;;;;;;;7.45;4.43;;;;;;;;;;4997507;28;99834;-65
2024/01/21 03:27:52;;;;;;;6.20;3.38;;;;;;;;;;5000958;28;99317;-65
2024/01/21 03:30:18;;;;;;;5.47;3.92;;;;;;;;;;4998288;28;100241;-65
2024/01/21 03:32:45;;;;;;;5.60;3.83;;;;;;;;;;5000382;28;99545;-65
2024/01/21 03:35:11;;;;;;;7.10;3.95;;;;;;;;;;5000918;28;99066;-65
2024/01/21 03:37:38;;;;;;;6.00;3.90;;;;;;;;;;4999335;28;99674;-65
2024/01/21 03:40:05;;;;;;;9.55;4.30;;;;;;;;;;4998626;28;99548;-65
2024/01/21 03:42:31;;;;;;;7.18;3.80;;;;;;;;;;4998929;28;98810;-64
2024/01/21 03:44:58;;;;;;;7.43;4.05;;;;;;;;;;4994653;28;99177;-65
2024/01/21 03:47:24;;;;;;;10.60;3.72;;;;;;;;;;4999269;28;98631;-64
2024/01/21 03:49:51;;;;;;;8.25;4.18;;;;;;;;;;5001086;28;99171;-65
2024/01/21 03:52:17;;;;;;;6.07;3.78;;;;;;;;;;4994984;28;100715;-65
2024/01/21 03:54:45;;;;;;;9.25;4.15;;;;;;;;;;4999402;28;98506;-65
2024/01/21 03:57:11;;;;;;;8.32;4.07;;;;;;;;;;4999314;28;99215;-65
2024/01/21 03:59:39;;;;;;;8.00;4.03;;;;;;;;;;4996533;28;99493;-65
2024/01/21 04:02:05;;;;;;;4.88;3.47;;;;;;;;;;4999977;28;98552;-65
2024/01/21 04:04:31;;;;;;;5.50;3.63;;;;;;;;;;5004646;28;99818;-65
2024/01/21 04:06:58;;;;;;;5.72;3.42;;;;;;;;;;4999792;28;98731;-64
2024/01/21 04:09:24;;;;;;;6.57;4.05;;;;;;;;;;4998148;28;99482;-64
2024/01/21 04:11:51;;;;;;;4.57;3.53;;;;;;;;;;4996847;28;99494;-66
2024/01/21 04:14:17;;;;;;;7.50;3.75;;;;;;;;;;4999901;28;98779;-64
2024/01/21 04:16:44;;;;;;;10.13;4.05;;;;;;;;;;4999016;28;99222;-65
2024/01/21 04:19:10;;;;;;;5.25;3.28;;;;;;;;;;4996109;28;99432;-65
2024/01/21 04:21:36;;;;;;;5.80;3.75;;;;;;;;;;5000555;28;98707;-65
2024/01/21 04:24:03;;;;;;;5.90;3.60;;;;;;;;;;5001344;28;99120;-65
2024/01/21 04:26:33;;;;;;;13.18;4.88;;;;;;;;;;4994962;28;103346;-65
2024/01/21 04:28:59;;;;;;;9.30;3.10;;;;;;;;;;4995193;28;99352;-65
2024/01/21 04:31:26;;;;;;;6.47;3.60;;;;;;;;;;4998471;28;99177;-65
2024/01/21 04:33:52;;;;;;;4.85;3.42;;;;;;;;;;4999182;28;97800;-64
2024/01/21 04:36:19;;;;;;;6.75;3.55;;;;;;;;;;4998726;28;98701;-64
2024/01/21 04:38:46;;;;;;;5.78;3.63;;;;;;;;;;4997206;28;100019;-65
2024/01/21 04:41:13;;;;;;;5.93;3.30;;;;;;;;;;4999986;28;99315;-65
2024/01/21 04:43:39;;;;;;;5.28;3.45;;;;;;;;;;4997468;28;99908;-65
2024/01/21 04:46:06;;;;;;;6.93;3.47;;;;;;;;;;4996806;28;100025;-64
2024/01/21 04:48:33;;;;;;;8.40;4.47;;;;;;;;;;4992581;28;98552;-64
2024/01/21 04:50:59;;;;;;;7.28;3.38;;;;;;;;;;4997236;28;100795;-65
2024/01/21 04:53:25;;;;;;;5.75;4.00;;;;;;;;;;4996845;28;98669;-65
2024/01/21 04:55:55;;;;;;;6.85;3.85;;;;;;;;;;4994679;28;98746;-65
2024/01/21 04:58:21;;;;;;;7.43;3.90;;;;;;;;;;5029216;27;98749;-64
2024/01/21 05:00:47;;;;;;;4.72;2.97;;;;;;;;;;4995208;28;98558;-65
2024/01/21 05:03:14;;;;;;;5.38;3.15;;;;;;;;;;4995437;28;99177;-65
2024/01/21 05:05:40;;;;;;;3.90;2.90;;;;;;;;;;4994654;28;100409;-64
2024/01/21 05:08:07;;;;;;;8.35;4.60;;;;;;;;;;4994522;28;98708;-65
2024/01/21 05:10:34;;;;;;;5.03;3.35;;;;;;;;;;4999860;28;100617;-65
2024/01/21 05:13:00;;;;;;;5.80;3.65;;;;;;;;;;4996333;28;98682;-65
2024/01/21 05:15:26;;;;;;;11.93;3.67;;;;;;;;;;4991755;28;99275;-64
2024/01/21 05:17:56;;;;;;;6.35;3.53;;;;;;;;;;4996947;28;99469;-65
2024/01/21 05:20:23;;;;;;;9.82;5.68;;;;;;;;;;4993672;28;98713;-65
2024/01/21 05:22:50;;;;;;;6.82;3.78;;;;;;;;;;4999071;28;99508;-65
2024/01/21 05:25:17;;;;;;;7.38;3.75;;;;;;;;;;4998330;28;100600;-65
2024/01/21 05:27:43;;;;;;;5.68;3.70;;;;;;;;;;4997455;28;98600;-65
2024/01/21 05:30:12;;;;;;;5.85;3.70;;;;;;;;;;4997256;28;100298;-65
2024/01/21 05:32:38;;;;;;;6.88;4.05;;;;;;;;;;5000021;28;99696;-65
2024/01/21 05:35:06;;;;;;;7.10;4.28;;;;;;;;;;4996216;28;99218;-65
2024/01/21 05:37:32;;;;;;;11.15;4.38;;;;;;;;;;4997421;28;101651;-65
2024/01/21 05:39:59;;;;;;;6.93;3.60;;;;;;;;;;4999765;28;98696;-65
2024/01/21 05:42:30;;;;;;;;;;;;;;;;;;4993967;28;99243;-65
2024/01/21 05:44:56;;;;;;;7.60;4.18;;;;;;;;;;4996989;28;130410;-65
2024/01/21 05:47:22;;;;;;;7.45;3.85;;;;;;;;;;4994954;28;99283;-65
2024/01/21 05:49:49;;;;;;;4.93;3.30;;;;;;;;;;4996290;28;98485;-65
2024/01/21 05:52:15;;;;;;;5.65;4.55;;;;;;;;;;4999084;28;99467;-65
2024/01/21 05:54:42;;;;;;;6.55;3.95;;;;;;;;;;4994708;28;99352;-65
2024/01/21 05:57:09;;;;;;;9.88;4.60;;;;;;;;;;4992859;28;100482;-65
2024/01/21 05:59:35;;;;;;;11.55;4.70;;;;;;;;;;4992261;28;98588;-65
2024/01/21 06:02:01;;;;;;;4.55;3.42;;;;;;;;;;4992848;28;100194;-65
2024/01/21 06:04:28;;;;;;;7.55;3.97;;;;;;;;;;4997174;28;100859;-65
2024/01/21 06:06:54;;;;;;;8.63;4.50;;;;;;;;;;4999303;28;98757;-65
2024/01/21 06:09:21;;;;;;;9.90;4.88;;;;;;;;;;4998002;28;99136;-65
2024/01/21 06:11:47;;;;;;;9.32;4.65;;;;;;;;;;4999793;28;99039;-65
2024/01/21 06:14:14;;;;;;;7.68;4.03;;;;;;;;;;5005770;28;98647;-65
2024/01/21 06:16:40;;;;;;;7.03;4.05;;;;;;;;;;4997334;28;99408;-65
2024/01/21 06:19:06;;;;;;;8.13;4.82;;;;;;;;;;4993122;28;100894;-65
2024/01/21 06:21:33;;;;;;;9.30;5.30;;;;;;;;;;5002678;28;99847;-65
2024/01/21 06:24:00;;;;;;;14.27;5.63;;;;;;;;;;5000731;28;99892;-65
2024/01/21 06:26:26;;;;;;;10.32;4.35;;;;;;;;;;5002271;28;98566;-65
2024/01/21 06:28:53;;;;;;;6.88;3.70;;;;;;;;;;5001574;28;99184;-65
2024/01/21 06:31:19;;;;;;;6.60;4.35;;;;;;;;;;4996647;28;100527;-65
2024/01/21 06:33:46;;;;;;;9.75;5.40;;;;;;;;;;5000922;28;99013;-65
2024/01/21 06:36:13;;;;;;;9.48;5.05;;;;;;;;;;5005663;28;99603;-65
2024/01/21 06:38:39;;;;;;;13.10;7.32;;;;;;;;;;4999302;28;98536;-65
2024/01/21 06:41:05;;;;;;;8.23;5.15;;;;;;;;;;4999968;28;100588;-65
2024/01/21 06:43:32;;;;;;;7.82;4.97;;;;;;;;;;4998654;28;101525;-65
2024/01/21 06:45:58;;;;;;;10.65;5.43;;;;;;;;;;4999668;28;98940;-67
2024/01/21 06:48:25;;;;;;;9.50;6.22;;;;;;;;;;5001297;28;100394;-66
2024/01/21 06:50:53;;;;;;;7.05;4.35;;;;;;;;;;5000121;28;99660;-66
2024/01/21 06:53:19;;;;;;;9.25;5.40;;;;;;;;;;5001941;28;98556;-66
2024/01/21 06:55:46;;;;;;;8.52;5.13;;;;;;;;;;5002812;28;99226;-66
2024/01/21 06:58:12;;;;;;;7.72;4.13;;;;;;;;;;4999861;28;99805;-67
2024/01/21 07:00:39;;;;;;;9.45;5.60;;;;;;;;;;4998882;28;99552;-66
2024/01/21 07:03:05;;;;;;;7.93;4.93;;;;;;;;;;4998923;28;100898;-66
2024/01/21 07:05:32;;;;;;;10.05;5.28;;;;;;;;;;4999270;28;98601;-66
2024/01/21 07:07:58;;;;;;;9.18;5.25;;;;;;;;;;5001310;28;99853;-66
2024/01/21 07:10:25;;;;;;;10.10;5.07;;;;;;;;;;4999727;28;99354;-66
2024/01/21 07:12:51;;;;;;;9.93;5.32;;;;;;;;;;4998534;28;98657;-66
2024/01/21 07:15:17;;;;;;;9.63;5.90;;;;;;;;;;4998930;28;99480;-66
2024/01/21 07:17:44;;;;;;;9.90;5.68;;;;;;;;;;4998625;28;99653;-66
2024/01/21 07:20:12;;;;;;;10.35;5.65;;;;;;;;;;5000415;28;98722;-66
2024/01/21 07:22:38;;;;;;;13.38;5.82;;;;;;;;;;4999849;28;99778;-66
2024/01/21 07:25:05;;;;;;;7.47;4.85;;;;;;;;;;4999689;28;98145;-66
2024/01/21 07:27:31;;;;;;;7.50;4.65;;;;;;;;;;5001594;28;98687;-66
2024/01/21 07:29:58;;;;;;;10.27;5.13;;;;;;;;;;4998132;28;99467;-66
2024/01/21 07:32:24;;;;;;;7.22;4.20;;;;;;;;;;4997511;28;99250;-66
2024/01/21 07:34:50;;;;;;;8.35;5.22;;;;;;;;;;4999524;28;99907;-66
2024/01/21 07:37:17;;;;;;;8.27;4.85;;;;;;;;;;4997244;28;98855;-66
2024/01/21 07:39:43;;;;;;;6.40;4.00;;;;;;;;;;5001702;28;98563;-66
2024/01/21 07:42:09;;;;;;;8.15;4.88;;;;;;;;;;4998153;28;99563;-67
2024/01/21 07:44:36;;;;;;;9.98;5.82;;;;;;;;;;4998632;28;98613;-69
2024/01/21 07:47:02;;;;;;;9.02;5.00;;;;;;;;;;4996801;28;99169;-68
2024/01/21 07:49:28;;;;;;;8.43;5.40;;;;;;;;;;5001547;28;98756;-69
2024/01/21 07:51:55;;;;;;;8.70;4.78;;;;;;;;;;4999131;28;98480;-68
2024/01/21 07:54:21;;;;;;;7.55;4.57;;;;;;;;;;4995990;28;99642;-68
2024/01/21 07:56:48;;;;;;;11.30;6.07;;;;;;;;;;4996815;28;100571;-68
2024/01/21 07:59:14;;;;;;;12.90;7.00;;;;;;;;;;4993696;28;100450;-68
2024/01/21 08:01:40;;;;;;;10.88;6.50;;;;;;;;;;5000748;28;99330;-65
2024/01/21 08:04:07;;;;;;;12.05;5.72;;;;;;;;;;5002627;28;100790;-66
2024/01/21 08:06:34;;;;;;;12.95;5.32;;;;;;;;;;4998482;28;99393;-65
2024/01/21 08:09:00;;;;;;;12.07;5.38;;;;;;;;;;5000630;28;99568;-66
2024/01/21 08:11:26;;;;;;;8.30;5.10;;;;;;;;;;4993517;28;98503;-66
2024/01/21 08:13:53;;;;;;;9.93;5.57;;;;;;;;;;4994216;28;100728;-66
2024/01/21 08:16:19;;;;;;;9.55;5.85;;;;;;;;;;4993890;28;99440;-65
2024/01/21 08:18:45;;;;;;;8.55;5.10;;;;;;;;;;4996930;28;98599;-66
2024/01/21 08:21:12;;;;;;;11.52;5.45;;;;;;;;;;4993082;28;99356;-66
2024/01/21 08:23:40;;;;;;;10.80;5.38;;;;;;;;;;5001314;28;99509;-66
2024/01/21 08:26:06;;;;;;;9.50;5.10;;;;;;;;;;4997415;28;98523;-66
2024/01/21 08:28:33;;;;;;;13.65;5.18;;;;;;;;;;4998209;28;99625;-66
2024/01/21 08:31:01;;;;;;;12.95;5.95;;;;;;;;;;4996983;28;99229;-66
2024/01/21 08:33:27;;;;;;;10.82;6.10;;;;;;;;;;5000123;28;99563;-65
2024/01/21 08:35:54;;;;;;;11.15;5.80;;;;;;;;;;4996379;28;99612;-66
2024/01/21 08:38:20;;;;;;;10.80;5.15;;;;;;;;;;4995361;28;98451;-66
2024/01/21 08:40:46;;;;;;;8.63;5.07;;;;;;;;;;4991467;28;98626;-67
2024/01/21 08:43:12;;;;;;;13.70;4.63;;;;;;;;;;4999575;28;99949;-68
2024/01/21 08:45:39;;;;;;;9.43;4.95;;;;;;;;;;4993701;28;99489;-67
2024/01/21 08:48:05;;;;;;;12.57;5.25;;;;;;;;;;4986117;28;98858;-66
2024/01/21 08:50:32;;;;;;;9.32;5.38;;;;;;;;;;4993426;28;98580;-67
2024/01/21 08:52:59;;;;;;;7.65;5.00;;;;;;;;;;4988906;28;99484;-67
2024/01/21 08:55:26;;;;;;;8.27;5.00;;;;;;;;;;4995004;28;99392;-67
2024/01/21 08:57:52;;;;;;;9.98;5.50;;;;;;;;;;4997997;28;98651;-67
2024/01/21 09:00:19;;;;;;;10.65;5.93;;;;;;;;;;5001029;28;99672;-66
2024/01/21 09:02:45;;;;;;;11.60;5.07;;;;;;;;;;4997501;28;99350;-67
2024/01/21 09:05:13;;;;;;;7.57;4.38;;;;;;;;;;4992796;28;98523;-67
2024/01/21 09:07:40;;;;;;;8.30;5.22;;;;;;;;;;4996130;28;99176;-67
2024/01/21 09:10:08;;;;;;;9.13;4.43;;;;;;;;;;4997953;28;99934;-68
2024/01/21 09:12:35;;;;;;;7.00;4.63;;;;;;;;;;4994073;28;99908;-69
2024/01/21 09:15:03;;;;;;;10.10;5.40;;;;;;;;;;4994627;28;99741;-69
2024/01/21 09:17:29;;;;;;;8.38;5.28;;;;;;;;;;4995571;28;98612;-70
2024/01/21 09:19:55;;;;;;;7.47;5.30;;;;;;;;;;4991468;28;99249;-69
2024/01/21 09:22:22;;;;;;;8.70;5.07;;;;;;;;;;4999301;28;103708;-69
2024/01/21 09:24:48;;;;;;;12.50;5.82;;;;;;;;;;4998081;28;98691;-69
2024/01/21 09:27:15;;;;;;;8.88;5.07;;;;;;;;;;4990214;28;102194;-69
2024/01/21 09:29:42;;;;;;;8.35;5.40;;;;;;;;;;4995650;28;99464;-69
2024/01/21 09:32:10;;;;;;;7.88;5.18;;;;;;;;;;4989173;28;99270;-69
2024/01/21 09:34:39;;;;;;;9.23;5.38;;;;;;;;;;4988054;28;101312;-69
2024/01/21 09:37:06;;;;;;;7.75;4.78;;;;;;;;;;4998320;28;98521;-69
2024/01/21 09:39:32;;;;;;;6.57;4.72;;;;;;;;;;4996845;28;99287;-68
2024/01/21 09:41:59;;;;;;;11.25;4.80;;;;;;;;;;4989638;28;99155;-68
2024/01/21 09:44:26;;;;;;;11.05;4.68;;;;;;;;;;4989297;28;98733;-68
2024/01/21 09:46:53;;;;;;;9.23;4.47;;;;;;;;;;4989755;28;100464;-69
2024/01/21 09:49:20;;;;;;;9.63;5.15;;;;;;;;;;4989739;28;99547;-68
2024/01/21 09:51:48;;;;;;;8.75;5.00;;;;;;;;;;4995858;28;98348;-69
2024/01/21 09:54:14;;;;;;;9.02;5.78;;;;;;;;;;4993511;28;99554;-68
2024/01/21 09:56:41;;;;;;;13.75;8.13;;;;;;;;;;4998108;28;98892;-68
2024/01/21 09:59:09;;;;;;;8.88;5.72;;;;;;;;;;4988937;28;99440;-69
2024/01/21 10:01:40;;;;;;;10.25;6.88;;;;;;;;;;4994379;28;99481;-69
2024/01/21 10:04:06;;;;;;;6.93;5.28;;;;;;;;;;4995039;28;98850;-69
2024/01/21 10:06:33;;;;;;;11.20;5.53;;;;;;;;;;4998013;28;99740;-68
2024/01/21 10:09:16;;;;;;;11.23;7.20;;;;;;;;;;4997989;28;100504;-68
2024/01/21 10:11:47;;;;;;;10.93;7.18;;;;;;;;;;4995797;28;99352;-68
2024/01/21 10:14:13;;;;;;;;;;;;;;;;;;4997319;28;101459;-68
2024/01/21 10:16:43;;;;;;;13.68;6.97;;;;;;;;;;5002166;28;118239;-68
2024/01/21 10:19:14;;;;;;;11.98;6.70;;;;;;;;;;4998957;28;99012;-69
2024/01/21 10:21:41;;;;;;;14.43;6.18;;;;;;;;;;4998017;28;100923;-68
2024/01/21 10:24:08;;;;;;;9.90;5.20;;;;;;;;;;4997144;28;99379;-69
2024/01/21 10:26:36;;;;;;;10.63;6.90;;;;;;;;;;4987247;28;100047;-68
2024/01/21 10:29:02;;;;;;;9.82;6.43;;;;;;;;;;4986321;28;99494;-69
2024/01/21 10:31:31;;;;;;;13.50;6.20;;;;;;;;;;4995162;28;99144;-69
2024/01/21 10:33:59;;;;;;;12.90;6.65;;;;;;;;;;4999132;28;99354;-68
2024/01/21 10:36:28;;;;;;;13.57;5.60;;;;;;;;;;4993673;28;98719;-69
2024/01/21 10:38:55;;;;;;;13.35;6.38;;;;;;;;;;4999462;28;99162;-69
2024/01/21 10:41:29;;;;;;;7.38;5.07;;;;;;;;;;4995721;28;99263;-71
2024/01/21 10:43:57;;;;;;;9.77;5.35;;;;;;;;;;4994783;28;98584;-72
2024/01/21 10:46:25;;;;;;;9.15;5.68;;;;;;;;;;4997401;28;99174;-73
2024/01/21 10:48:55;;;;;;;11.50;5.80;;;;;;;;;;4995074;28;100634;-68
2024/01/21 10:51:22;;;;;;;;;;;;;;;;;;4996557;28;98574;-69
2024/01/21 10:53:52;;;;;;;12.27;5.70;;;;;;;;;;4997131;28;129315;-72
2024/01/21 10:56:19;;;;;;;15.37;6.40;;;;;;;;;;4991210;28;100007;-73
2024/01/21 10:58:47;;;;;;;14.88;7.32;;;;;;;;;;4999069;28;98497;-71
2024/01/21 11:01:14;;;;;;;10.77;6.03;;;;;;;;;;4995599;28;99515;-73
2024/01/21 11:03:42;;;;;;;11.68;6.28;;;;;;;;;;4995877;28;98597;-73
2024/01/21 11:06:10;;;;;;;12.88;6.20;;;;;;;;;;4997405;28;99198;-73
2024/01/21 11:08:40;;;;;;;17.58;7.68;;;;;;;;;;4992843;28;99429;-71
2024/01/21 11:11:13;;;;;;;10.52;6.00;;;;;;;;;;4993757;28;98556;-68
2024/01/21 11:13:43;;;;;;;19.38;7.97;;;;;;;;;;5004989;28;99335;-70
2024/01/21 11:16:30;;;;;;;14.07;7.95;;;;;;;;;;4998580;28;100600;-66
2024/01/21 11:18:57;;;;;;;9.00;6.35;;;;;;;;;;4989015;28;98616;-69
2024/01/21 11:21:24;;;;;;;14.35;6.80;;;;;;;;;;4998839;28;99901;-68
2024/01/21 11:23:58;;;;;;;10.85;5.80;;;;;;;;;;4998713;28;98541;-69
2024/01/21 11:26:24;;;;;;;11.05;6.20;;;;;;;;;;4995047;28;99181;-68
2024/01/21 11:28:50;;;;;;;8.35;5.72;;;;;;;;;;4998462;28;100582;-68
2024/01/21 11:31:19;;;;;;;11.48;5.50;;;;;;;;;;4997971;28;97863;-67
2024/01/21 11:34:01;;;;;;;11.77;6.00;;;;;;;;;;4998226;28;98754;-67
2024/01/21 11:36:27;;;;;;;8.73;6.28;;;;;;;;;;4994518;28;100509;-66
2024/01/21 11:38:54;;;;;;;12.98;6.18;;;;;;;;;;4998105;28;99275;-67
2024/01/21 11:41:23;;;;;;;11.35;6.38;;;;;;;;;;5001851;28;99846;-66
2024/01/21 11:43:50;;;;;;;10.75;6.20;;;;;;;;;;4997814;28;98628;-67
2024/01/21 11:46:16;;;;;;;12.55;6.03;;;;;;;;;;4998981;28;99098;-66
2024/01/21 11:48:43;;;;;;;11.40;6.32;;;;;;;;;;4997467;28;99622;-67
2024/01/21 11:51:09;;;;;;;13.55;6.45;;;;;;;;;;4997888;28;98843;-66
2024/01/21 11:53:35;;;;;;;12.70;6.10;;;;;;;;;;4999380;28;99187;-66
2024/01/21 11:56:02;;;;;;;9.35;6.75;;;;;;;;;;4999503;28;98676;-67
2024/01/21 11:58:28;;;;;;;10.88;6.60;;;;;;;;;;4998306;28;98547;-66
2024/01/21 12:00:55;;;;;;;12.48;5.85;;;;;;;;;;4994496;28;101823;-67
2024/01/21 12:03:21;;;;;;;8.68;5.07;;;;;;;;;;4996109;28;100295;-67
2024/01/21 12:05:48;;;;;;;11.95;6.57;;;;;;;;;;4997759;28;101025;-65
2024/01/21 12:08:14;;;;;;;18.95;10.65;;;;;;;;;;4993451;28;100745;-66
2024/01/21 12:10:41;;;;;;;10.35;6.35;;;;;;;;;;4999181;28;98555;-66
2024/01/21 12:13:08;;;;;;;10.48;6.18;;;;;;;;;;4994124;28;99934;-66
2024/01/21 12:15:35;;;;;;;11.82;6.07;;;;;;;;;;4998060;28;99511;-66
2024/01/21 12:18:02;;;;;;;12.07;6.25;;;;;;;;;;4997602;28;99740;-66
2024/01/21 12:20:29;;;;;;;9.73;6.32;;;;;;;;;;4999220;28;98212;-66
2024/01/21 12:22:56;;;;;;;9.30;5.85;;;;;;;;;;4997591;28;99650;-68
2024/01/21 12:25:22;;;;;;;10.48;6.53;;;;;;;;;;5001754;28;98915;-66
2024/01/21 12:27:54;;;;;;;9.40;6.40;;;;;;;;;;4996150;28;101222;-66
2024/01/21 12:30:23;;;;;;;10.07;6.43;;;;;;;;;;4995873;28;98995;-66
2024/01/21 12:32:50;;;;;;;10.75;7.25;;;;;;;;;;5000395;28;99722;-67
2024/01/21 12:35:24;;;;;;;14.65;6.93;;;;;;;;;;4993819;28;99522;-66
2024/01/21 12:37:51;;;;;;;13.05;6.35;;;;;;;;;;4998135;28;98762;-66
2024/01/21 12:40:18;;;;;;;12.25;7.40;;;;;;;;;;4995197;28;99658;-66
2024/01/21 12:42:44;;;;;;;12.90;7.78;;;;;;;;;;4996568;28;99487;-66
2024/01/21 12:45:11;;;;;;;12.00;6.90;;;;;;;;;;5001327;28;97912;-66
2024/01/21 12:47:38;;;;;;;12.40;6.75;;;;;;;;;;4987791;28;101983;-66
2024/01/21 12:50:06;;;;;;;19.40;8.82;;;;;;;;;;4999165;28;100225;-66
2024/01/21 12:52:33;;;;;;;22.88;8.38;;;;;;;;;;4999534;28;99328;-66
2024/01/21 12:54:59;;;;;;;13.90;6.43;;;;;;;;;;4997211;28;99466;-66
2024/01/21 12:57:26;;;;;;;29.40;10.43;;;;;;;;;;4998280;28;98485;-66
2024/01/21 12:59:53;;;;;;;18.00;7.65;;;;;;;;;;5000589;28;102546;-67
2024/01/21 13:02:19;;;;;;;20.90;7.90;;;;;;;;;;4995045;28;99786;-67
2024/01/21 13:04:45;;;;;;;30.08;10.65;;;;;;;;;;4998880;28;98631;-67
2024/01/21 13:07:12;;;;;;;30.40;9.50;;;;;;;;;;5001333;28;99335;-66
2024/01/21 13:09:38;;;;;;;23.17;9.88;;;;;;;;;;4998952;28;97855;-66
2024/01/21 13:12:05;;;;;;;21.38;9.82;;;;;;;;;;4993439;28;98800;-66
2024/01/21 13:14:31;;;;;;;22.10;8.45;;;;;;;;;;4995729;28;99506;-66
2024/01/21 13:16:58;;;;;;;22.95;9.77;;;;;;;;;;4995763;28;99226;-66
2024/01/21 13:19:24;;;;;;;16.27;8.10;;;;;;;;;;4984546;28;101371;-67
2024/01/21 13:21:51;;;;;;;12.90;7.05;;;;;;;;;;4996287;28;99747;-66
2024/01/21 13:24:18;;;;;;;13.38;6.45;;;;;;;;;;4999601;28;98423;-66
2024/01/21 13:26:51;;;;;;;13.18;6.38;;;;;;;;;;4995385;28;100051;-66
2024/01/21 13:32:06;;;;;;;17.23;8.48;;;;;;;;;;4994564;28;99205;-66
2024/01/21 13:34:32;;;;;;;21.08;9.18;;;;;;;;;;4999849;28;98681;-66
2024/01/21 13:36:59;;;;;;;23.25;9.30;;;;;;;;;;4996692;28;98648;-66
2024/01/21 13:39:25;;;;;;;22.65;10.77;;;;;;;;;;4996134;28;99242;-66
2024/01/21 13:41:52;;;;;;;29.05;9.27;;;;;;;;;;4992056;28;100278;-66
2024/01/21 13:44:18;;;;;;;23.23;9.20;;;;;;;;;;4998901;28;98571;-66
2024/01/21 13:46:46;;;;;;;32.45;10.15;;;;;;;;;;4993851;28;99687;-66
2024/01/21 13:49:12;;;;;;;25.08;8.18;;;;;;;;;;4997395;28;99426;-66
2024/01/21 13:51:39;;;;;;;33.03;10.70;;;;;;;;;;4998333;28;98600;-66
2024/01/21 13:54:05;;;;;;;37.13;13.52;;;;;;;;;;4995743;28;99538;-66
2024/01/21 13:56:31;;;;;;;19.95;8.13;;;;;;;;;;4995996;28;101552;-66
2024/01/21 13:58:58;;;;;;;19.92;6.72;;;;;;;;;;4992228;28;99199;-67
2024/01/21 14:01:24;;;;;;;13.65;7.18;;;;;;;;;;4999182;28;100551;-67
2024/01/21 14:03:51;;;;;;;27.20;8.95;;;;;;;;;;4996252;28;98996;-67
2024/01/21 14:06:19;;;;;;;20.30;9.10;;;;;;;;;;4996537;28;100341;-67
2024/01/21 14:08:45;;;;;;;17.05;8.90;;;;;;;;;;4996069;28;99549;-66
2024/01/21 14:11:11;;;;;;;12.35;7.45;;;;;;;;;;4994058;28;98768;-67
2024/01/21 14:13:39;;;;;;;19.20;9.23;;;;;;;;;;4994180;28;102443;-66
2024/01/21 14:16:06;;;;;;;13.88;6.30;;;;;;;;;;4998702;28;99544;-66
2024/01/21 14:18:33;;;;;;;11.75;7.22;;;;;;;;;;4994334;28;99509;-67
2024/01/21 14:20:59;;;;;;;13.48;7.30;;;;;;;;;;4992457;28;99584;-68
2024/01/21 14:23:25;;;;;;;14.32;7.25;;;;;;;;;;4999634;28;97919;-66
2024/01/21 14:25:54;;;;;;;17.95;7.60;;;;;;;;;;4993537;28;98726;-67
2024/01/21 14:28:22;;;;;;;17.17;6.57;;;;;;;;;;4993503;28;99733;-67
2024/01/21 14:30:49;;;;;;;13.23;7.35;;;;;;;;;;4983451;28;101391;-66
2024/01/21 14:33:15;;;;;;;20.48;9.95;;;;;;;;;;5000589;28;100119;-69
2024/01/21 14:35:43;;;;;;;20.73;11.00;;;;;;;;;;4987330;28;98675;-68
2024/01/21 14:38:10;;;;;;;21.33;11.32;;;;;;;;;;4992997;28;100179;-67